Aeroporto :
LOGIN :

Iscrizione | Disclaimer

   EN    FR    IT 

 










Sommario :    VFR   VFR Marginale   IFR   IFR Intensivo   IFR Molto Intensivo
Visibilità : 
Base nubi : 
>= 8 km
>= 3000ft
5 / 8 km
1000 / 3000 ft
1500m / 5 km
500 / 1000 ft
800 / 1500m
200 / 500 ft
< 800m
< 200 ft
Simboli :   Temporali  Nebbia  Neve Forte  Precipitazioni Forti  Vento > 20 kt
SIGMETs :   Varie  Temporali  Ghiacco  Turbolenza  Onda orograficha  Ceneri Vulcaniche






- Altitudine del aeroporto : 405 ft
- Codice IATA : ODH


EGVO - RAF Odiham

ULTIMO METAR :
  • 210450Z 07009KT 9999 FEW010 OVC017 05/03 Q1004 RMK WHT

METARs OBSOLETI :
  • 210350Z 08011KT 9999 OVC017 05/03 Q1004 RMK WHT
  • 210250Z 09010KT 9999 BKN014 05/03 Q1005 RMK GRN

TAF TAF EGVO
Valido dal 21 a 06 ore il 21 a 18 ore UTC


210437Z 2106/2118 08010KT 9999 BKN015
TEMPO 2106/2109 BKN010
PROB30
TEMPO 2106/2110 SCT005
BECMG 2109/2112 BKN010
TEMPO 2116/2118 7000 -RADZ
PROB30
TEMPO 2116/2118 4000 RA SCT005



MetMap, La meteo Aeronautica in un colpo d'occhio ! - Copyright ORBIFLY Dicembre 2007 - Disclaimer

ORBIFLY MET'MAP TEAM :

Programmazione e sviluppo : Alexandra Zaïnal
Concezione e sviluppo : Baudouin d'Aumeries
Co-Programmazione e sviluppo : Marc-Olivier Méhu
Supporto tecnico e logistico : Manuel Goepfert
Aiuto per la traduzione : Arnaldo La Scala

Contatto : metmap@orbifly.com




FONTI E CREDITI :

   NOAA